首页
METAR-TAF:

METAR-TAF

机场 :

塔兰托, 意大利

纬度: 40-31N, 经度: 017-24E, 海拔: 64米

当前天气观测

该预报发布于10小时和50分钟前的17:50 UTC
风速16节,风向南转南东
温度 21°C
湿度 73%
气压 1008 hPa
能见度10公里或以上
1500米以下无云,无积雨云

METAR: LIBG 041750Z 16016KT CAVOK 21/16 Q1008

时间: 06:40 (04:40 UTC)

预报

该预报发布于14小时和40分钟前的14:00 UTC
预报有效从04日的 15点(UTC)到 04日的 24点(UTC)
风速14节,风向
能见度10公里或以上
散云层高于3000英尺

TAF: LIBG 041400Z 0415/0424 18014KT 9999 SCT030

超过4000个机场的气象观测和天气预报(METAR&TAF报告)。

可查询的气象台以黄色和红色小点在地图上表示。

将鼠标移到小点上方,可查看气象台名称。

然后点击查看天气观测和预报。

如需切换地图:点击带黑十字的绿色按钮放大地图;点击带横线的绿色按钮缩小地图;或者点击绿色箭头查看邻近地区的地图。


METAR-TAF: